sensor_id;sensor_type;location;lat;lon;timestamp;P1;durP1;ratioP1;P2;durP2;ratioP2
40635;SDS011;26642;55.766;37.828;2022-08-01T00:00:35;10.07;;;4.45;;
40635;SDS011;26642;55.766;37.828;2022-08-01T00:03:01;7.00;;;4.63;;
40635;SDS011;26642;55.766;37.828;2022-08-01T00:05:27;7.63;;;4.43;;
40635;SDS011;26642;55.766;37.828;2022-08-01T00:07:53;8.73;;;4.55;;
40635;SDS011;26642;55.766;37.828;2022-08-01T00:10:19;7.43;;;5.03;;
40635;SDS011;26642;55.766;37.828;2022-08-01T00:12:45;8.57;;;5.07;;
40635;SDS011;26642;55.766;37.828;2022-08-01T00:15:12;9.57;;;4.95;;
40635;SDS011;26642;55.766;37.828;2022-08-01T00:17:40;9.95;;;4.07;;
40635;SDS011;26642;55.766;37.828;2022-08-01T00:20:07;9.32;;;4.22;;
40635;SDS011;26642;55.766;37.828;2022-08-01T00:22:34;9.07;;;4.05;;
40635;SDS011;26642;55.766;37.828;2022-08-01T00:25:01;8.93;;;4.05;;
40635;SDS011;26642;55.766;37.828;2022-08-01T00:27:28;6.80;;;4.20;;
40635;SDS011;26642;55.766;37.828;2022-08-01T00:29:54;5.20;;;3.53;;
40635;SDS011;26642;55.766;37.828;2022-08-01T00:32:20;10.48;;;4.28;;
40635;SDS011;26642;55.766;37.828;2022-08-01T00:34:46;9.35;;;4.65;;
40635;SDS011;26642;55.766;37.828;2022-08-01T00:37:12;15.05;;;5.68;;
40635;SDS011;26642;55.766;37.828;2022-08-01T00:39:38;11.35;;;6.10;;
40635;SDS011;26642;55.766;37.828;2022-08-01T00:42:07;9.63;;;6.72;;
40635;SDS011;26642;55.766;37.828;2022-08-01T00:44:34;10.57;;;6.97;;
40635;SDS011;26642;55.766;37.828;2022-08-01T00:47:01;9.13;;;6.35;;
40635;SDS011;26642;55.766;37.828;2022-08-01T00:49:27;8.43;;;5.40;;
40635;SDS011;26642;55.766;37.828;2022-08-01T00:51:54;10.63;;;5.25;;
40635;SDS011;26642;55.766;37.828;2022-08-01T00:54:21;7.57;;;4.05;;
40635;SDS011;26642;55.766;37.828;2022-08-01T00:56:48;7.82;;;3.67;;
40635;SDS011;26642;55.766;37.828;2022-08-01T00:59:14;5.85;;;3.17;;
40635;SDS011;26642;55.766;37.828;2022-08-01T01:01:43;8.43;;;3.67;;
40635;SDS011;26642;55.766;37.828;2022-08-01T01:04:09;10.27;;;3.50;;
40635;SDS011;26642;55.766;37.828;2022-08-01T01:14:44;4.85;;;2.72;;
40635;SDS011;26642;55.766;37.828;2022-08-01T01:17:16;4.68;;;2.90;;
40635;SDS011;26642;55.766;37.828;2022-08-01T01:19:48;4.65;;;2.90;;
40635;SDS011;26642;55.766;37.828;2022-08-01T01:25:08;5.50;;;3.05;;
40635;SDS011;26642;55.766;37.828;2022-08-01T01:30:23;4.25;;;2.83;;
40635;SDS011;26642;55.766;37.828;2022-08-01T01:32:53;3.85;;;2.55;;
40635;SDS011;26642;55.766;37.828;2022-08-01T01:35:26;4.65;;;3.03;;
40635;SDS011;26642;55.766;37.828;2022-08-01T01:37:58;3.03;;;2.50;;
40635;SDS011;26642;55.766;37.828;2022-08-01T01:40:29;5.30;;;2.38;;
40635;SDS011;26642;55.766;37.828;2022-08-01T01:42:56;9.48;;;2.95;;
40635;SDS011;26642;55.766;37.828;2022-08-01T01:45:23;6.53;;;2.53;;
40635;SDS011;26642;55.766;37.828;2022-08-01T01:47:50;7.72;;;2.60;;
40635;SDS011;26642;55.766;37.828;2022-08-01T01:50:19;4.10;;;2.50;;
40635;SDS011;26642;55.766;37.828;2022-08-01T01:52:49;6.68;;;2.50;;
40635;SDS011;26642;55.766;37.828;2022-08-01T01:55:16;3.72;;;2.67;;
40635;SDS011;26642;55.766;37.828;2022-08-01T01:57:44;3.92;;;2.63;;
40635;SDS011;26642;55.766;37.828;2022-08-01T02:00:12;4.30;;;2.58;;
40635;SDS011;26642;55.766;37.828;2022-08-01T02:02:39;6.10;;;2.90;;
40635;SDS011;26642;55.766;37.828;2022-08-01T02:05:08;6.38;;;3.25;;
40635;SDS011;26642;55.766;37.828;2022-08-01T02:07:35;4.15;;;3.08;;
40635;SDS011;26642;55.766;37.828;2022-08-01T02:10:04;4.53;;;2.90;;
40635;SDS011;26642;55.766;37.828;2022-08-01T02:12:32;5.80;;;2.97;;
40635;SDS011;26642;55.766;37.828;2022-08-01T02:15:01;8.65;;;3.42;;
40635;SDS011;26642;55.766;37.828;2022-08-01T02:17:28;4.97;;;3.20;;
40635;SDS011;26642;55.766;37.828;2022-08-01T02:19:56;6.57;;;3.85;;
40635;SDS011;26642;55.766;37.828;2022-08-01T02:27:58;6.40;;;3.20;;
40635;SDS011;26642;55.766;37.828;2022-08-01T02:30:44;6.28;;;3.15;;
40635;SDS011;26642;55.766;37.828;2022-08-01T02:33:20;11.20;;;3.20;;
40635;SDS011;26642;55.766;37.828;2022-08-01T02:35:50;5.82;;;3.22;;
40635;SDS011;26642;55.766;37.828;2022-08-01T02:38:20;7.28;;;3.72;;
40635;SDS011;26642;55.766;37.828;2022-08-01T02:40:50;7.22;;;3.03;;
40635;SDS011;26642;55.766;37.828;2022-08-01T02:43:20;5.10;;;2.75;;
40635;SDS011;26642;55.766;37.828;2022-08-01T02:45:51;5.20;;;2.70;;
40635;SDS011;26642;55.766;37.828;2022-08-01T02:48:19;8.68;;;3.40;;
40635;SDS011;26642;55.766;37.828;2022-08-01T02:50:48;7.15;;;3.28;;
40635;SDS011;26642;55.766;37.828;2022-08-01T02:53:16;7.07;;;3.13;;
40635;SDS011;26642;55.766;37.828;2022-08-01T02:55:45;4.07;;;3.00;;
40635;SDS011;26642;55.766;37.828;2022-08-01T02:58:14;6.95;;;3.03;;
40635;SDS011;26642;55.766;37.828;2022-08-01T03:00:42;5.93;;;3.00;;
40635;SDS011;26642;55.766;37.828;2022-08-01T03:03:10;8.68;;;3.40;;
40635;SDS011;26642;55.766;37.828;2022-08-01T03:05:37;5.05;;;2.92;;
40635;SDS011;26642;55.766;37.828;2022-08-01T03:08:08;5.63;;;3.13;;
40635;SDS011;26642;55.766;37.828;2022-08-01T03:10:36;6.25;;;3.42;;
40635;SDS011;26642;55.766;37.828;2022-08-01T03:13:05;6.45;;;3.38;;
40635;SDS011;26642;55.766;37.828;2022-08-01T03:15:33;7.32;;;3.15;;
40635;SDS011;26642;55.766;37.828;2022-08-01T03:18:01;10.55;;;3.40;;
40635;SDS011;26642;55.766;37.828;2022-08-01T03:20:30;7.75;;;3.33;;
40635;SDS011;26642;55.766;37.828;2022-08-01T03:22:59;8.35;;;3.28;;
40635;SDS011;26642;55.766;37.828;2022-08-01T03:25:28;5.13;;;3.33;;
40635;SDS011;26642;55.766;37.828;2022-08-01T03:27:58;6.82;;;3.60;;
40635;SDS011;26642;55.766;37.828;2022-08-01T03:30:27;8.02;;;3.85;;
40635;SDS011;26642;55.766;37.828;2022-08-01T03:32:55;13.27;;;3.55;;
40635;SDS011;26642;55.766;37.828;2022-08-01T03:35:21;9.57;;;3.40;;
40635;SDS011;26642;55.766;37.828;2022-08-01T03:37:52;12.45;;;4.00;;
40635;SDS011;26642;55.766;37.828;2022-08-01T03:40:24;12.88;;;4.70;;
40635;SDS011;26642;55.766;37.828;2022-08-01T03:42:59;9.63;;;4.03;;
40635;SDS011;26642;55.766;37.828;2022-08-01T03:45:30;11.95;;;3.78;;
40635;SDS011;26642;55.766;37.828;2022-08-01T03:48:01;10.20;;;4.00;;
40635;SDS011;26642;55.766;37.828;2022-08-01T03:50:30;9.85;;;4.10;;
40635;SDS011;26642;55.766;37.828;2022-08-01T03:53:00;5.32;;;4.25;;
40635;SDS011;26642;55.766;37.828;2022-08-01T03:55:29;9.10;;;3.90;;
40635;SDS011;26642;55.766;37.828;2022-08-01T03:57:56;7.43;;;3.97;;
40635;SDS011;26642;55.766;37.828;2022-08-01T04:00:23;6.45;;;3.83;;
40635;SDS011;26642;55.766;37.828;2022-08-01T04:02:50;5.22;;;3.67;;
40635;SDS011;26642;55.766;37.828;2022-08-01T04:05:16;6.53;;;4.10;;
40635;SDS011;26642;55.766;37.828;2022-08-01T04:07:47;9.65;;;4.50;;
40635;SDS011;26642;55.766;37.828;2022-08-01T04:10:20;6.32;;;3.60;;
40635;SDS011;26642;55.766;37.828;2022-08-01T04:12:47;6.50;;;3.88;;
40635;SDS011;26642;55.766;37.828;2022-08-01T04:15:13;8.70;;;3.80;;
40635;SDS011;26642;55.766;37.828;2022-08-01T04:17:39;6.97;;;4.03;;
40635;SDS011;26642;55.766;37.828;2022-08-01T04:20:05;4.20;;;3.15;;
40635;SDS011;26642;55.766;37.828;2022-08-01T04:22:32;4.85;;;3.28;;
40635;SDS011;26642;55.766;37.828;2022-08-01T04:24:58;6.28;;;3.30;;
40635;SDS011;26642;55.766;37.828;2022-08-01T04:27:32;6.22;;;3.47;;
40635;SDS011;26642;55.766;37.828;2022-08-01T04:30:02;4.53;;;3.20;;
40635;SDS011;26642;55.766;37.828;2022-08-01T04:32:31;7.43;;;3.58;;
40635;SDS011;26642;55.766;37.828;2022-08-01T04:35:02;6.55;;;3.78;;
40635;SDS011;26642;55.766;37.828;2022-08-01T04:37:33;7.80;;;4.40;;
40635;SDS011;26642;55.766;37.828;2022-08-01T04:40:05;7.55;;;4.00;;
40635;SDS011;26642;55.766;37.828;2022-08-01T04:42:32;5.65;;;3.38;;
40635;SDS011;26642;55.766;37.828;2022-08-01T04:44:59;8.45;;;3.58;;
40635;SDS011;26642;55.766;37.828;2022-08-01T04:47:25;8.10;;;3.47;;
40635;SDS011;26642;55.766;37.828;2022-08-01T04:49:51;5.03;;;2.95;;
40635;SDS011;26642;55.766;37.828;2022-08-01T04:52:18;6.75;;;3.80;;
40635;SDS011;26642;55.766;37.828;2022-08-01T04:54:45;8.70;;;3.65;;
40635;SDS011;26642;55.766;37.828;2022-08-01T04:57:11;6.07;;;4.00;;
40635;SDS011;26642;55.766;37.828;2022-08-01T04:59:38;7.43;;;4.10;;
40635;SDS011;26642;55.766;37.828;2022-08-01T05:02:15;5.38;;;3.92;;
40635;SDS011;26642;55.766;37.828;2022-08-01T05:07:09;6.60;;;3.65;;
40635;SDS011;26642;55.766;37.828;2022-08-01T05:09:36;5.40;;;2.53;;
40635;SDS011;26642;55.766;37.828;2022-08-01T05:12:03;6.20;;;3.10;;
40635;SDS011;26642;55.766;37.828;2022-08-01T05:14:30;5.18;;;3.03;;
40635;SDS011;26642;55.766;37.828;2022-08-01T05:16:58;6.50;;;3.25;;
40635;SDS011;26642;55.766;37.828;2022-08-01T05:19:25;4.13;;;3.00;;
40635;SDS011;26642;55.766;37.828;2022-08-01T05:21:52;6.07;;;2.60;;
40635;SDS011;26642;55.766;37.828;2022-08-01T05:24:18;3.08;;;2.10;;
40635;SDS011;26642;55.766;37.828;2022-08-01T05:26:43;8.82;;;2.55;;
40635;SDS011;26642;55.766;37.828;2022-08-01T05:29:09;2.83;;;2.00;;
40635;SDS011;26642;55.766;37.828;2022-08-01T05:31:35;2.97;;;2.13;;
40635;SDS011;26642;55.766;37.828;2022-08-01T05:34:02;7.47;;;2.30;;
40635;SDS011;26642;55.766;37.828;2022-08-01T05:36:28;4.35;;;2.28;;
40635;SDS011;26642;55.766;37.828;2022-08-01T05:38:55;3.00;;;1.80;;
40635;SDS011;26642;55.766;37.828;2022-08-01T05:41:21;5.28;;;2.25;;
40635;SDS011;26642;55.766;37.828;2022-08-01T05:43:46;5.90;;;2.08;;
40635;SDS011;26642;55.766;37.828;2022-08-01T05:46:12;6.75;;;1.90;;
40635;SDS011;26642;55.766;37.828;2022-08-01T05:48:38;4.47;;;2.03;;
40635;SDS011;26642;55.766;37.828;2022-08-01T05:51:04;3.17;;;2.22;;
40635;SDS011;26642;55.766;37.828;2022-08-01T05:53:30;3.42;;;2.40;;
40635;SDS011;26642;55.766;37.828;2022-08-01T05:55:59;8.25;;;2.50;;
40635;SDS011;26642;55.766;37.828;2022-08-01T05:58:26;4.80;;;2.08;;
40635;SDS011;26642;55.766;37.828;2022-08-01T06:00:52;7.50;;;2.22;;
40635;SDS011;26642;55.766;37.828;2022-08-01T06:03:18;4.20;;;2.30;;
40635;SDS011;26642;55.766;37.828;2022-08-01T06:05:45;5.07;;;2.33;;
40635;SDS011;26642;55.766;37.828;2022-08-01T06:08:11;4.60;;;2.30;;
40635;SDS011;26642;55.766;37.828;2022-08-01T06:10:36;7.75;;;2.22;;
40635;SDS011;26642;55.766;37.828;2022-08-01T06:13:02;3.17;;;1.98;;
40635;SDS011;26642;55.766;37.828;2022-08-01T06:15:29;6.00;;;2.17;;
40635;SDS011;26642;55.766;37.828;2022-08-01T06:17:55;5.85;;;2.28;;
40635;SDS011;26642;55.766;37.828;2022-08-01T06:20:21;6.88;;;1.80;;
40635;SDS011;26642;55.766;37.828;2022-08-01T06:22:47;3.15;;;1.58;;
40635;SDS011;26642;55.766;37.828;2022-08-01T06:25:13;3.47;;;1.88;;
40635;SDS011;26642;55.766;37.828;2022-08-01T06:27:39;2.90;;;1.42;;
40635;SDS011;26642;55.766;37.828;2022-08-01T06:30:05;5.75;;;1.85;;
40635;SDS011;26642;55.766;37.828;2022-08-01T06:32:32;3.33;;;1.65;;
40635;SDS011;26642;55.766;37.828;2022-08-01T06:34:58;4.75;;;1.77;;
40635;SDS011;26642;55.766;37.828;2022-08-01T06:37:28;4.00;;;1.60;;
40635;SDS011;26642;55.766;37.828;2022-08-01T06:39:55;3.10;;;1.50;;
40635;SDS011;26642;55.766;37.828;2022-08-01T06:42:21;3.03;;;1.50;;
40635;SDS011;26642;55.766;37.828;2022-08-01T06:44:47;1.38;;;1.10;;
40635;SDS011;26642;55.766;37.828;2022-08-01T06:47:13;3.72;;;1.65;;
40635;SDS011;26642;55.766;37.828;2022-08-01T06:49:39;2.33;;;1.50;;
40635;SDS011;26642;55.766;37.828;2022-08-01T06:52:05;2.92;;;1.60;;
40635;SDS011;26642;55.766;37.828;2022-08-01T06:54:31;1.38;;;1.25;;
40635;SDS011;26642;55.766;37.828;2022-08-01T06:56:57;5.25;;;1.50;;
40635;SDS011;26642;55.766;37.828;2022-08-01T06:59:23;3.15;;;1.20;;
40635;SDS011;26642;55.766;37.828;2022-08-01T07:01:48;4.18;;;1.50;;
40635;SDS011;26642;55.766;37.828;2022-08-01T07:04:14;1.60;;;1.48;;
40635;SDS011;26642;55.766;37.828;2022-08-01T07:06:40;3.88;;;1.75;;
40635;SDS011;26642;55.766;37.828;2022-08-01T07:09:06;3.70;;;1.40;;
40635;SDS011;26642;55.766;37.828;2022-08-01T07:11:32;4.88;;;2.05;;
40635;SDS011;26642;55.766;37.828;2022-08-01T07:13:58;2.60;;;1.88;;
40635;SDS011;26642;55.766;37.828;2022-08-01T07:16:25;3.83;;;1.70;;
40635;SDS011;26642;55.766;37.828;2022-08-01T07:18:51;3.13;;;1.70;;
40635;SDS011;26642;55.766;37.828;2022-08-01T07:21:17;6.93;;;1.92;;
40635;SDS011;26642;55.766;37.828;2022-08-01T07:23:43;4.80;;;1.90;;
40635;SDS011;26642;55.766;37.828;2022-08-01T07:26:09;4.38;;;1.88;;
40635;SDS011;26642;55.766;37.828;2022-08-01T07:28:34;2.95;;;1.52;;
40635;SDS011;26642;55.766;37.828;2022-08-01T07:31:00;3.95;;;1.90;;
40635;SDS011;26642;55.766;37.828;2022-08-01T07:33:26;4.32;;;2.03;;
40635;SDS011;26642;55.766;37.828;2022-08-01T07:35:52;4.28;;;2.13;;
40635;SDS011;26642;55.766;37.828;2022-08-01T07:38:18;3.72;;;2.20;;
40635;SDS011;26642;55.766;37.828;2022-08-01T07:40:44;3.05;;;1.90;;
40635;SDS011;26642;55.766;37.828;2022-08-01T07:43:10;3.95;;;1.65;;
40635;SDS011;26642;55.766;37.828;2022-08-01T07:45:36;9.35;;;2.30;;
40635;SDS011;26642;55.766;37.828;2022-08-01T07:48:03;3.88;;;1.67;;
40635;SDS011;26642;55.766;37.828;2022-08-01T07:50:30;2.10;;;1.40;;
40635;SDS011;26642;55.766;37.828;2022-08-01T07:52:56;6.45;;;1.50;;
40635;SDS011;26642;55.766;37.828;2022-08-01T07:55:22;3.58;;;1.20;;
40635;SDS011;26642;55.766;37.828;2022-08-01T07:57:48;2.17;;;1.48;;
40635;SDS011;26642;55.766;37.828;2022-08-01T08:00:14;3.92;;;1.75;;
40635;SDS011;26642;55.766;37.828;2022-08-01T08:02:40;3.15;;;1.75;;
40635;SDS011;26642;55.766;37.828;2022-08-01T08:05:07;2.80;;;1.10;;
40635;SDS011;26642;55.766;37.828;2022-08-01T08:07:33;1.63;;;1.38;;
40635;SDS011;26642;55.766;37.828;2022-08-01T08:09:59;3.40;;;1.33;;
40635;SDS011;26642;55.766;37.828;2022-08-01T08:12:25;3.08;;;1.27;;
40635;SDS011;26642;55.766;37.828;2022-08-01T08:14:51;4.00;;;1.20;;
40635;SDS011;26642;55.766;37.828;2022-08-01T08:17:17;2.45;;;1.25;;
40635;SDS011;26642;55.766;37.828;2022-08-01T08:19:43;4.00;;;1.08;;
40635;SDS011;26642;55.766;37.828;2022-08-01T08:22:09;2.75;;;1.20;;
40635;SDS011;26642;55.766;37.828;2022-08-01T08:24:36;3.78;;;1.30;;
40635;SDS011;26642;55.766;37.828;2022-08-01T08:27:02;2.25;;;1.38;;
40635;SDS011;26642;55.766;37.828;2022-08-01T08:29:29;3.90;;;1.35;;
40635;SDS011;26642;55.766;37.828;2022-08-01T08:31:57;5.97;;;1.63;;
40635;SDS011;26642;55.766;37.828;2022-08-01T08:34:25;2.25;;;1.42;;
40635;SDS011;26642;55.766;37.828;2022-08-01T08:36:52;3.72;;;1.58;;
40635;SDS011;26642;55.766;37.828;2022-08-01T08:39:20;1.73;;;1.00;;
40635;SDS011;26642;55.766;37.828;2022-08-01T08:41:46;4.35;;;1.60;;
40635;SDS011;26642;55.766;37.828;2022-08-01T08:44:13;5.53;;;1.25;;
40635;SDS011;26642;55.766;37.828;2022-08-01T08:46:41;2.55;;;1.45;;
40635;SDS011;26642;55.766;37.828;2022-08-01T08:49:13;1.38;;;1.10;;
40635;SDS011;26642;55.766;37.828;2022-08-01T08:51:42;2.53;;;1.60;;
40635;SDS011;26642;55.766;37.828;2022-08-01T08:54:12;2.47;;;1.50;;
40635;SDS011;26642;55.766;37.828;2022-08-01T08:56:38;1.35;;;1.17;;
40635;SDS011;26642;55.766;37.828;2022-08-01T08:59:05;1.90;;;1.50;;
40635;SDS011;26642;55.766;37.828;2022-08-01T09:01:32;1.90;;;1.30;;
40635;SDS011;26642;55.766;37.828;2022-08-01T09:03:58;3.88;;;1.67;;
40635;SDS011;26642;55.766;37.828;2022-08-01T09:06:24;1.65;;;1.30;;
40635;SDS011;26642;55.766;37.828;2022-08-01T09:08:51;4.22;;;1.30;;
40635;SDS011;26642;55.766;37.828;2022-08-01T09:11:17;2.42;;;1.45;;
40635;SDS011;26642;55.766;37.828;2022-08-01T09:14:00;1.95;;;1.42;;
40635;SDS011;26642;55.766;37.828;2022-08-01T09:16:26;2.30;;;1.45;;
40635;SDS011;26642;55.766;37.828;2022-08-01T09:18:52;4.15;;;1.73;;
40635;SDS011;26642;55.766;37.828;2022-08-01T09:21:19;4.30;;;1.50;;
40635;SDS011;26642;55.766;37.828;2022-08-01T09:23:51;2.10;;;1.38;;
40635;SDS011;26642;55.766;37.828;2022-08-01T09:26:20;2.35;;;1.50;;
40635;SDS011;26642;55.766;37.828;2022-08-01T09:31:20;4.20;;;1.60;;
40635;SDS011;26642;55.766;37.828;2022-08-01T09:36:17;1.98;;;1.10;;
40635;SDS011;26642;55.766;37.828;2022-08-01T09:38:44;3.22;;;1.48;;
40635;SDS011;26642;55.766;37.828;2022-08-01T09:41:11;2.55;;;1.38;;
40635;SDS011;26642;55.766;37.828;2022-08-01T09:43:37;2.25;;;1.55;;
40635;SDS011;26642;55.766;37.828;2022-08-01T09:46:04;3.13;;;1.40;;
40635;SDS011;26642;55.766;37.828;2022-08-01T09:48:39;6.38;;;1.90;;
40635;SDS011;26642;55.766;37.828;2022-08-01T09:53:55;4.00;;;1.75;;
40635;SDS011;26642;55.766;37.828;2022-08-01T09:56:22;2.33;;;1.50;;
40635;SDS011;26642;55.766;37.828;2022-08-01T09:58:58;4.55;;;1.42;;
40635;SDS011;26642;55.766;37.828;2022-08-01T10:01:25;1.60;;;1.50;;
40635;SDS011;26642;55.766;37.828;2022-08-01T10:06:48;4.95;;;1.60;;
40635;SDS011;26642;55.766;37.828;2022-08-01T10:09:30;2.45;;;1.90;;
40635;SDS011;26642;55.766;37.828;2022-08-01T10:12:01;2.88;;;1.58;;
40635;SDS011;26642;55.766;37.828;2022-08-01T10:14:28;1.98;;;1.48;;
40635;SDS011;26642;55.766;37.828;2022-08-01T10:16:55;5.78;;;1.88;;
40635;SDS011;26642;55.766;37.828;2022-08-01T10:19:24;3.55;;;1.50;;
40635;SDS011;26642;55.766;37.828;2022-08-01T10:21:53;4.03;;;1.55;;
40635;SDS011;26642;55.766;37.828;2022-08-01T10:24:20;4.15;;;1.80;;
40635;SDS011;26642;55.766;37.828;2022-08-01T10:27:20;2.22;;;1.70;;
40635;SDS011;26642;55.766;37.828;2022-08-01T10:32:13;3.75;;;1.92;;
40635;SDS011;26642;55.766;37.828;2022-08-01T10:34:40;1.75;;;1.65;;
40635;SDS011;26642;55.766;37.828;2022-08-01T10:37:06;2.05;;;1.73;;
40635;SDS011;26642;55.766;37.828;2022-08-01T10:39:33;1.60;;;1.50;;
40635;SDS011;26642;55.766;37.828;2022-08-01T10:41:59;4.53;;;1.80;;
40635;SDS011;26642;55.766;37.828;2022-08-01T10:44:27;3.00;;;1.60;;
40635;SDS011;26642;55.766;37.828;2022-08-01T10:46:59;4.90;;;1.80;;
40635;SDS011;26642;55.766;37.828;2022-08-01T10:49:31;6.75;;;2.08;;
40635;SDS011;26642;55.766;37.828;2022-08-01T10:52:01;4.68;;;1.98;;
40635;SDS011;26642;55.766;37.828;2022-08-01T10:54:28;3.80;;;1.77;;
40635;SDS011;26642;55.766;37.828;2022-08-01T10:56:54;2.40;;;2.00;;
40635;SDS011;26642;55.766;37.828;2022-08-01T10:59:28;5.43;;;2.22;;
40635;SDS011;26642;55.766;37.828;2022-08-01T11:01:56;6.72;;;2.00;;
40635;SDS011;26642;55.766;37.828;2022-08-01T11:04:34;10.52;;;2.40;;
40635;SDS011;26642;55.766;37.828;2022-08-01T11:07:06;3.42;;;1.90;;
40635;SDS011;26642;55.766;37.828;2022-08-01T11:09:43;2.03;;;1.60;;
40635;SDS011;26642;55.766;37.828;2022-08-01T11:12:16;3.67;;;1.55;;
40635;SDS011;26642;55.766;37.828;2022-08-01T11:31:02;3.65;;;1.83;;
40635;SDS011;26642;55.766;37.828;2022-08-01T11:38:48;2.47;;;1.98;;
40635;SDS011;26642;55.766;37.828;2022-08-01T11:44:11;5.38;;;2.03;;
40635;SDS011;26642;55.766;37.828;2022-08-01T11:57:18;2.38;;;1.80;;
40635;SDS011;26642;55.766;37.828;2022-08-01T11:59:46;2.88;;;2.20;;
40635;SDS011;26642;55.766;37.828;2022-08-01T12:05:06;2.05;;;1.70;;
40635;SDS011;26642;55.766;37.828;2022-08-01T12:07:32;2.63;;;2.10;;
40635;SDS011;26642;55.766;37.828;2022-08-01T12:10:03;6.38;;;1.98;;
40635;SDS011;26642;55.766;37.828;2022-08-01T12:12:30;2.47;;;1.60;;
40635;SDS011;26642;55.766;37.828;2022-08-01T12:14:58;3.00;;;2.10;;
40635;SDS011;26642;55.766;37.828;2022-08-01T12:17:31;4.82;;;2.30;;
40635;SDS011;26642;55.766;37.828;2022-08-01T12:20:02;4.03;;;2.05;;
40635;SDS011;26642;55.766;37.828;2022-08-01T12:22:30;6.15;;;2.10;;
40635;SDS011;26642;55.766;37.828;2022-08-01T12:24:56;2.13;;;1.50;;
40635;SDS011;26642;55.766;37.828;2022-08-01T12:27:31;2.90;;;1.85;;
40635;SDS011;26642;55.766;37.828;2022-08-01T12:29:57;3.78;;;1.50;;
40635;SDS011;26642;55.766;37.828;2022-08-01T12:32:28;2.00;;;1.77;;
40635;SDS011;26642;55.766;37.828;2022-08-01T12:35:06;3.72;;;2.00;;
40635;SDS011;26642;55.766;37.828;2022-08-01T12:37:37;2.30;;;1.65;;
40635;SDS011;26642;55.766;37.828;2022-08-01T12:40:11;2.03;;;1.45;;
40635;SDS011;26642;55.766;37.828;2022-08-01T12:42:46;1.67;;;1.58;;
40635;SDS011;26642;55.766;37.828;2022-08-01T12:45:14;6.60;;;2.58;;
40635;SDS011;26642;55.766;37.828;2022-08-01T12:47:42;2.38;;;1.80;;
40635;SDS011;26642;55.766;37.828;2022-08-01T12:50:14;3.20;;;1.90;;
40635;SDS011;26642;55.766;37.828;2022-08-01T12:52:43;5.90;;;2.00;;
40635;SDS011;26642;55.766;37.828;2022-08-01T12:55:20;2.55;;;2.17;;
40635;SDS011;26642;55.766;37.828;2022-08-01T12:57:49;4.05;;;2.10;;
40635;SDS011;26642;55.766;37.828;2022-08-01T13:00:28;3.33;;;2.20;;
40635;SDS011;26642;55.766;37.828;2022-08-01T13:03:28;3.95;;;2.08;;
40635;SDS011;26642;55.766;37.828;2022-08-01T13:05:50;2.67;;;1.90;;
40635;SDS011;26642;55.766;37.828;2022-08-01T13:08:17;4.35;;;1.83;;
40635;SDS011;26642;55.766;37.828;2022-08-01T13:10:45;8.55;;;2.15;;
40635;SDS011;26642;55.766;37.828;2022-08-01T13:13:12;3.45;;;1.90;;
40635;SDS011;26642;55.766;37.828;2022-08-01T13:15:39;3.47;;;2.28;;
40635;SDS011;26642;55.766;37.828;2022-08-01T13:18:25;3.78;;;1.70;;
40635;SDS011;26642;55.766;37.828;2022-08-01T13:23:40;4.20;;;1.73;;
40635;SDS011;26642;55.766;37.828;2022-08-01T13:26:37;6.22;;;2.17;;
40635;SDS011;26642;55.766;37.828;2022-08-01T13:29:06;3.92;;;2.17;;
40635;SDS011;26642;55.766;37.828;2022-08-01T13:31:33;4.22;;;1.95;;
40635;SDS011;26642;55.766;37.828;2022-08-01T13:33:59;2.63;;;2.00;;
40635;SDS011;26642;55.766;37.828;2022-08-01T13:36:26;4.28;;;2.42;;
40635;SDS011;26642;55.766;37.828;2022-08-01T13:38:57;3.10;;;1.90;;
40635;SDS011;26642;55.766;37.828;2022-08-01T13:41:42;2.72;;;1.50;;
40635;SDS011;26642;55.766;37.828;2022-08-01T13:44:08;5.22;;;1.80;;
40635;SDS011;26642;55.766;37.828;2022-08-01T13:46:40;3.15;;;2.03;;
40635;SDS011;26642;55.766;37.828;2022-08-01T13:49:07;3.25;;;2.10;;
40635;SDS011;26642;55.766;37.828;2022-08-01T13:51:34;3.20;;;1.80;;
40635;SDS011;26642;55.766;37.828;2022-08-01T13:54:02;3.45;;;1.80;;
40635;SDS011;26642;55.766;37.828;2022-08-01T13:56:28;3.78;;;1.90;;
40635;SDS011;26642;55.766;37.828;2022-08-01T13:58:55;3.85;;;1.77;;
40635;SDS011;26642;55.766;37.828;2022-08-01T14:01:22;4.88;;;1.98;;
40635;SDS011;26642;55.766;37.828;2022-08-01T14:03:49;4.72;;;1.60;;
40635;SDS011;26642;55.766;37.828;2022-08-01T14:06:16;2.10;;;1.73;;
40635;SDS011;26642;55.766;37.828;2022-08-01T14:08:43;4.45;;;1.80;;
40635;SDS011;26642;55.766;37.828;2022-08-01T14:11:10;2.45;;;1.90;;
40635;SDS011;26642;55.766;37.828;2022-08-01T14:13:36;3.20;;;1.70;;
40635;SDS011;26642;55.766;37.828;2022-08-01T14:16:04;5.00;;;2.00;;
40635;SDS011;26642;55.766;37.828;2022-08-01T14:18:30;3.03;;;1.60;;
40635;SDS011;26642;55.766;37.828;2022-08-01T14:20:57;6.70;;;1.90;;
40635;SDS011;26642;55.766;37.828;2022-08-01T14:23:23;3.15;;;2.10;;
40635;SDS011;26642;55.766;37.828;2022-08-01T14:25:49;5.00;;;1.80;;
40635;SDS011;26642;55.766;37.828;2022-08-01T14:28:15;2.33;;;1.70;;
40635;SDS011;26642;55.766;37.828;2022-08-01T14:30:41;5.97;;;1.77;;
40635;SDS011;26642;55.766;37.828;2022-08-01T14:33:08;4.07;;;2.00;;
40635;SDS011;26642;55.766;37.828;2022-08-01T14:35:34;3.92;;;1.90;;
40635;SDS011;26642;55.766;37.828;2022-08-01T14:38:00;2.80;;;1.95;;
40635;SDS011;26642;55.766;37.828;2022-08-01T14:40:26;1.85;;;1.65;;
40635;SDS011;26642;55.766;37.828;2022-08-01T14:42:53;6.47;;;1.85;;
40635;SDS011;26642;55.766;37.828;2022-08-01T14:45:18;3.13;;;1.80;;
40635;SDS011;26642;55.766;37.828;2022-08-01T14:47:44;3.22;;;1.90;;
40635;SDS011;26642;55.766;37.828;2022-08-01T14:50:12;4.00;;;2.00;;
40635;SDS011;26642;55.766;37.828;2022-08-01T14:52:40;2.33;;;1.83;;
40635;SDS011;26642;55.766;37.828;2022-08-01T14:55:08;3.17;;;1.88;;
40635;SDS011;26642;55.766;37.828;2022-08-01T14:57:36;4.05;;;1.92;;
40635;SDS011;26642;55.766;37.828;2022-08-01T15:00:04;2.53;;;1.88;;
40635;SDS011;26642;55.766;37.828;2022-08-01T15:02:35;4.40;;;1.67;;
40635;SDS011;26642;55.766;37.828;2022-08-01T15:05:01;5.28;;;2.00;;
40635;SDS011;26642;55.766;37.828;2022-08-01T15:07:27;3.22;;;1.80;;
40635;SDS011;26642;55.766;37.828;2022-08-01T15:09:53;2.95;;;1.95;;
40635;SDS011;26642;55.766;37.828;2022-08-01T15:12:19;2.30;;;1.63;;
40635;SDS011;26642;55.766;37.828;2022-08-01T15:14:45;2.70;;;1.80;;
40635;SDS011;26642;55.766;37.828;2022-08-01T15:17:15;6.03;;;2.47;;
40635;SDS011;26642;55.766;37.828;2022-08-01T15:19:46;2.28;;;1.88;;
40635;SDS011;26642;55.766;37.828;2022-08-01T15:22:22;4.50;;;1.90;;
40635;SDS011;26642;55.766;37.828;2022-08-01T15:24:50;4.95;;;1.70;;
40635;SDS011;26642;55.766;37.828;2022-08-01T15:27:17;3.08;;;1.92;;
40635;SDS011;26642;55.766;37.828;2022-08-01T15:29:44;2.63;;;1.98;;
40635;SDS011;26642;55.766;37.828;2022-08-01T15:32:10;3.40;;;1.90;;
40635;SDS011;26642;55.766;37.828;2022-08-01T15:34:36;1.98;;;1.85;;
40635;SDS011;26642;55.766;37.828;2022-08-01T15:37:03;3.65;;;1.95;;
40635;SDS011;26642;55.766;37.828;2022-08-01T15:39:30;2.42;;;2.13;;
40635;SDS011;26642;55.766;37.828;2022-08-01T15:42:17;2.45;;;1.90;;
40635;SDS011;26642;55.766;37.828;2022-08-01T15:44:43;4.20;;;1.85;;
40635;SDS011;26642;55.766;37.828;2022-08-01T15:47:09;3.45;;;1.75;;
40635;SDS011;26642;55.766;37.828;2022-08-01T15:49:36;4.93;;;2.10;;
40635;SDS011;26642;55.766;37.828;2022-08-01T15:52:03;2.95;;;1.70;;
40635;SDS011;26642;55.766;37.828;2022-08-01T15:54:30;3.25;;;2.33;;